createdAt,value
2023-04-09T00:02:02.591Z,22.27
2023-04-09T00:04:29.381Z,23.17
2023-04-09T00:06:56.152Z,22.88
2023-04-09T00:09:22.892Z,24.10
2023-04-09T00:11:49.852Z,22.67
2023-04-09T00:14:16.617Z,23.25
2023-04-09T00:16:43.333Z,23.15
2023-04-09T00:19:10.026Z,23.73
2023-04-09T00:21:37.101Z,26.70
2023-04-09T00:24:04.726Z,24.05
2023-04-09T00:26:31.707Z,27.00
2023-04-09T00:28:58.360Z,26.77
2023-04-09T00:31:25.190Z,24.58
2023-04-09T00:33:51.880Z,25.05
2023-04-09T00:36:18.646Z,24.65
2023-04-09T00:38:46.091Z,27.92
2023-04-09T00:41:12.756Z,27.25
2023-04-09T00:43:39.633Z,26.48
2023-04-09T00:46:06.467Z,28.27
2023-04-09T00:48:33.361Z,27.45
2023-04-09T00:51:00.327Z,28.02
2023-04-09T00:53:27.209Z,27.92
2023-04-09T00:55:55.662Z,26.45
2023-04-09T00:58:22.480Z,26.77
2023-04-09T01:00:49.248Z,27.23
2023-04-09T01:03:16.444Z,26.23
2023-04-09T01:06:11.161Z,24.42
2023-04-09T01:09:06.320Z,27.98
2023-04-09T01:11:43.462Z,26.00
2023-04-09T01:14:39.314Z,25.98
2023-04-09T01:17:17.605Z,27.45
2023-04-09T01:20:06.181Z,24.98
2023-04-09T01:22:50.253Z,26.13
2023-04-09T01:25:55.656Z,25.77
2023-04-09T01:28:42.669Z,25.05
2023-04-09T01:31:15.314Z,28.40
2023-04-09T01:36:09.753Z,26.88
2023-04-09T01:38:40.252Z,26.23
2023-04-09T01:41:08.785Z,28.10
2023-04-09T01:43:37.111Z,28.08
2023-04-09T01:46:04.557Z,27.60
2023-04-09T01:48:32.743Z,25.88
2023-04-09T01:50:59.786Z,26.42
2023-04-09T01:53:31.065Z,27.55
2023-04-09T01:56:01.568Z,28.23
2023-04-09T01:58:28.476Z,24.35
2023-04-09T02:01:03.690Z,27.00
2023-04-09T02:03:37.065Z,27.70
2023-04-09T02:06:06.653Z,27.50
2023-04-09T02:08:35.192Z,26.17
2023-04-09T02:11:05.553Z,27.45
2023-04-09T02:13:34.824Z,26.67
2023-04-09T02:16:03.409Z,24.35
2023-04-09T02:18:31.222Z,26.13
2023-04-09T02:20:58.620Z,25.35
2023-04-09T02:23:27.330Z,26.98
2023-04-09T02:25:54.336Z,26.77
2023-04-09T02:28:21.126Z,25.35
2023-04-09T02:30:47.923Z,26.40
2023-04-09T02:33:14.690Z,26.92
2023-04-09T02:35:41.561Z,25.98
2023-04-09T02:38:13.694Z,25.88
2023-04-09T02:40:43.518Z,25.92
2023-04-09T02:43:10.773Z,27.10
2023-04-09T02:45:37.741Z,28.13
2023-04-09T02:48:04.697Z,27.85
2023-04-09T02:50:34.880Z,27.67
2023-04-09T02:53:02.171Z,27.65
2023-04-09T02:55:29.134Z,24.80
2023-04-09T02:57:56.103Z,27.88
2023-04-09T03:00:23.034Z,26.00
2023-04-09T03:02:50.210Z,25.30
2023-04-09T03:05:17.173Z,27.02
2023-04-09T03:07:43.912Z,26.80
2023-04-09T03:10:10.908Z,27.77
2023-04-09T03:12:37.695Z,26.05
2023-04-09T03:15:05.390Z,27.75
2023-04-09T03:17:32.369Z,25.25
2023-04-09T03:19:59.260Z,26.67
2023-04-09T03:22:37.726Z,26.33
2023-04-09T03:25:09.167Z,25.02
2023-04-09T03:27:36.548Z,25.38
2023-04-09T03:30:03.955Z,26.60
2023-04-09T03:32:42.814Z,26.60
2023-04-09T03:35:12.110Z,24.75
2023-04-09T03:37:40.641Z,25.30
2023-04-09T03:40:14.549Z,26.17
2023-04-09T03:42:43.210Z,26.65
2023-04-09T03:45:12.396Z,26.55
2023-04-09T03:47:43.470Z,27.38
2023-04-09T03:50:11.034Z,27.23
2023-04-09T03:52:56.733Z,26.95
2023-04-09T03:55:23.688Z,24.85
2023-04-09T03:57:51.525Z,27.67
2023-04-09T04:00:22.338Z,24.40
2023-04-09T04:03:12.322Z,26.05
2023-04-09T04:05:59.620Z,24.48
2023-04-09T04:08:26.528Z,23.40
2023-04-09T04:10:53.562Z,26.02
2023-04-09T04:13:21.071Z,24.65
2023-04-09T04:15:54.382Z,25.05
2023-04-09T04:18:23.280Z,25.95
2023-04-09T04:20:52.565Z,23.65
2023-04-09T04:23:19.284Z,24.50
2023-04-09T04:25:56.952Z,24.77
2023-04-09T04:28:36.414Z,23.95
2023-04-09T04:31:13.446Z,24.40
2023-04-09T04:33:42.397Z,24.38
2023-04-09T04:36:15.563Z,24.20
2023-04-09T04:38:46.844Z,25.08
2023-04-09T04:41:33.817Z,25.30
2023-04-09T04:44:14.798Z,24.60
2023-04-09T04:46:41.959Z,25.50
2023-04-09T04:49:08.743Z,26.50
2023-04-09T04:51:42.502Z,26.77
2023-04-09T04:54:12.319Z,25.55
2023-04-09T04:56:42.877Z,24.92
2023-04-09T04:59:19.888Z,24.67
2023-04-09T05:01:58.204Z,24.55
2023-04-09T05:04:26.254Z,24.23
2023-04-09T05:06:54.450Z,27.10
2023-04-09T05:09:22.859Z,24.70
2023-04-09T05:12:06.544Z,23.63
2023-04-09T05:14:34.521Z,25.02
2023-04-09T05:17:01.540Z,24.45
2023-04-09T05:19:38.936Z,24.77
2023-04-09T05:22:05.936Z,23.88
2023-04-09T05:24:32.711Z,23.58
2023-04-09T05:26:59.445Z,24.13
2023-04-09T05:29:26.446Z,26.98
2023-04-09T05:31:56.345Z,26.13
2023-04-09T05:34:31.317Z,27.60
2023-04-09T05:36:58.254Z,27.52
2023-04-09T05:39:25.824Z,26.00
2023-04-09T05:41:52.957Z,26.38
2023-04-09T05:44:39.962Z,27.52
2023-04-09T05:47:12.098Z,26.58
2023-04-09T05:49:45.792Z,25.05
2023-04-09T05:52:16.786Z,26.00
2023-04-09T05:54:43.842Z,27.77
2023-04-09T05:57:13.046Z,27.73
2023-04-09T05:59:43.484Z,28.17
2023-04-09T06:02:10.437Z,27.30
2023-04-09T06:04:37.304Z,26.50
2023-04-09T06:07:04.169Z,26.35
2023-04-09T06:09:33.941Z,27.10
2023-04-09T06:12:02.457Z,24.52
2023-04-09T06:14:29.153Z,26.48
2023-04-09T06:16:56.069Z,26.20
2023-04-09T06:19:23.085Z,27.02
2023-04-09T06:21:49.819Z,27.75
2023-04-09T06:24:17.726Z,28.73
2023-04-09T06:26:44.458Z,27.10
2023-04-09T06:29:11.217Z,28.45
2023-04-09T06:31:38.113Z,27.55
2023-04-09T06:34:05.002Z,26.15
2023-04-09T06:36:33.319Z,28.45
2023-04-09T06:39:00.251Z,26.42
2023-04-09T06:41:26.972Z,26.67
2023-04-09T06:43:54.314Z,26.42
2023-04-09T06:46:21.507Z,26.38
2023-04-09T06:48:48.292Z,27.58
2023-04-09T06:51:15.239Z,27.63
2023-04-09T06:53:42.151Z,27.55
2023-04-09T06:56:09.042Z,27.85
2023-04-09T06:58:38.639Z,27.90
2023-04-09T07:01:06.237Z,27.58
2023-04-09T07:03:33.245Z,29.48
2023-04-09T07:06:00.258Z,27.52
2023-04-09T07:08:28.603Z,26.45
2023-04-09T07:10:55.342Z,27.85
2023-04-09T07:13:22.120Z,29.00
2023-04-09T07:15:48.856Z,28.65
2023-04-09T07:18:15.666Z,29.50
2023-04-09T07:20:42.467Z,28.83
2023-04-09T07:23:09.248Z,29.38
2023-04-09T07:25:36.438Z,29.10
2023-04-09T07:28:03.585Z,30.58
2023-04-09T07:30:30.800Z,28.77
2023-04-09T07:32:57.585Z,29.23
2023-04-09T07:35:24.411Z,29.73
2023-04-09T07:37:51.092Z,29.13
2023-04-09T07:40:17.909Z,29.23
2023-04-09T07:42:44.632Z,28.70
2023-04-09T07:45:11.370Z,29.05
2023-04-09T07:47:40.851Z,30.27
2023-04-09T07:50:08.661Z,29.33
2023-04-09T07:52:35.586Z,29.30
2023-04-09T07:55:02.352Z,30.85
2023-04-09T07:57:31.385Z,30.55
2023-04-09T07:59:58.371Z,30.45
2023-04-09T08:02:25.761Z,31.52
2023-04-09T08:04:52.783Z,30.45
2023-04-09T08:07:23.009Z,29.95
2023-04-09T08:09:49.656Z,29.40
2023-04-09T08:12:16.462Z,29.30
2023-04-09T08:14:45.404Z,29.40
2023-04-09T08:17:12.124Z,29.67
2023-04-09T08:19:41.155Z,29.23
2023-04-09T08:22:13.895Z,30.23
2023-04-09T08:24:40.609Z,31.33
2023-04-09T08:27:07.367Z,28.92
2023-04-09T08:29:34.743Z,29.92
2023-04-09T08:32:01.891Z,28.63
2023-04-09T08:34:32.158Z,30.05
2023-04-09T08:36:59.012Z,29.85
2023-04-09T08:39:28.144Z,29.05
2023-04-09T08:42:01.729Z,29.70
2023-04-09T08:44:29.422Z,27.73
2023-04-09T08:46:58.336Z,30.10
2023-04-09T08:49:26.324Z,28.00
2023-04-09T08:51:53.068Z,28.70
2023-04-09T08:54:20.196Z,28.23
2023-04-09T08:56:47.659Z,28.52
2023-04-09T08:59:21.142Z,27.90
2023-04-09T09:01:53.832Z,26.73
2023-04-09T09:04:20.849Z,26.23
2023-04-09T09:06:47.568Z,26.95
2023-04-09T09:09:16.214Z,27.00
2023-04-09T09:11:48.479Z,25.90
2023-04-09T09:14:17.148Z,27.20
2023-04-09T09:17:03.791Z,25.42
2023-04-09T09:19:33.585Z,25.30
2023-04-09T09:22:02.571Z,26.17
2023-04-09T09:24:30.687Z,25.05
2023-04-09T09:26:58.731Z,26.05
2023-04-09T09:29:26.044Z,25.67
2023-04-09T09:31:54.842Z,23.88
2023-04-09T09:34:23.093Z,25.92
2023-04-09T09:36:49.962Z,23.40
2023-04-09T09:39:17.534Z,22.17
2023-04-09T09:41:46.586Z,25.98
2023-04-09T09:44:31.240Z,25.30
2023-04-09T09:47:03.431Z,24.98
2023-04-09T09:49:30.286Z,24.30
2023-04-09T09:51:59.560Z,23.70
2023-04-09T09:54:30.185Z,24.83
2023-04-09T09:57:01.978Z,24.10
2023-04-09T09:59:34.496Z,21.85
2023-04-09T10:04:35.664Z,23.08
2023-04-09T10:07:05.747Z,25.02
2023-04-09T10:09:35.367Z,24.48
2023-04-09T10:12:05.193Z,25.85
2023-04-09T10:14:32.570Z,23.95
2023-04-09T10:16:59.316Z,24.67
2023-04-09T10:19:27.049Z,24.90
2023-04-09T10:22:08.090Z,25.02
2023-04-09T10:24:35.629Z,23.38
2023-04-09T10:27:15.889Z,26.25
2023-04-09T10:29:45.430Z,23.13
2023-04-09T10:32:12.890Z,24.30
2023-04-09T10:34:41.626Z,23.10
2023-04-09T10:37:16.920Z,23.65
2023-04-09T10:39:48.450Z,23.10
2023-04-09T10:42:24.770Z,23.13
2023-04-09T10:45:16.864Z,21.75
2023-04-09T10:47:46.255Z,22.40
2023-04-09T10:50:30.787Z,21.77
2023-04-09T10:53:00.450Z,22.10
2023-04-09T10:55:42.682Z,18.80
2023-04-09T10:58:13.200Z,19.10
2023-04-09T11:00:43.151Z,19.30
2023-04-09T11:03:24.249Z,19.58
2023-04-09T11:06:02.675Z,20.25
2023-04-09T11:08:33.934Z,19.45
2023-04-09T11:11:02.206Z,19.90
2023-04-09T11:13:31.571Z,19.63
2023-04-09T11:16:00.045Z,19.88
2023-04-09T11:18:28.918Z,19.67
2023-04-09T11:20:56.705Z,15.77
2023-04-09T11:23:24.711Z,15.52
2023-04-09T11:25:52.862Z,16.35
2023-04-09T11:28:20.199Z,15.55
2023-04-09T11:30:47.647Z,16.70
2023-04-09T11:33:15.614Z,15.93
2023-04-09T11:35:43.925Z,16.33
2023-04-09T11:38:11.865Z,16.45
2023-04-09T11:40:47.813Z,18.73
2023-04-09T11:43:18.806Z,18.20
2023-04-09T11:45:48.114Z,16.98
2023-04-09T11:48:18.069Z,17.98
2023-04-09T11:50:45.724Z,17.75
2023-04-09T11:53:19.430Z,17.08
2023-04-09T11:55:51.533Z,16.65
2023-04-09T11:58:19.059Z,11.73
2023-04-09T12:00:48.556Z,13.15
2023-04-09T12:03:16.763Z,11.65
2023-04-09T12:05:50.906Z,11.68
2023-04-09T12:08:23.720Z,11.40
2023-04-09T12:13:33.325Z,12.10
2023-04-09T12:16:01.243Z,11.63
2023-04-09T12:18:27.949Z,11.57
2023-04-09T12:20:54.683Z,11.48
2023-04-09T12:23:21.449Z,12.45
2023-04-09T12:25:48.269Z,11.07
2023-04-09T12:28:18.980Z,10.93
2023-04-09T12:30:46.697Z,10.05
2023-04-09T12:33:13.434Z,11.63
2023-04-09T12:35:40.405Z,10.25
2023-04-09T12:38:07.255Z,10.50
2023-04-09T12:40:35.555Z,10.60
2023-04-09T12:43:02.400Z,9.85
2023-04-09T12:45:30.343Z,9.60
2023-04-09T12:47:57.974Z,10.18
2023-04-09T12:50:25.268Z,10.05
2023-04-09T12:52:52.029Z,12.30
2023-04-09T12:55:18.724Z,13.32
2023-04-09T12:57:49.020Z,11.00
2023-04-09T13:00:16.257Z,11.38
2023-04-09T13:02:43.291Z,11.88
2023-04-09T13:05:11.486Z,11.70
2023-04-09T13:07:38.589Z,11.23
2023-04-09T13:10:06.486Z,11.77
2023-04-09T13:12:33.282Z,11.02
2023-04-09T13:15:00.259Z,12.73
2023-04-09T13:17:27.131Z,12.25
2023-04-09T13:19:53.867Z,10.38
2023-04-09T13:22:20.757Z,12.27
2023-04-09T13:24:50.150Z,11.63
2023-04-09T13:27:17.304Z,10.73
2023-04-09T13:29:44.000Z,12.60
2023-04-09T13:32:11.560Z,11.30
2023-04-09T13:34:39.582Z,10.80
2023-04-09T13:37:06.583Z,12.02
2023-04-09T13:39:33.452Z,10.70
2023-04-09T13:42:02.487Z,12.07
2023-04-09T13:44:34.355Z,11.63
2023-04-09T13:47:04.064Z,10.23
2023-04-09T13:49:30.886Z,11.02
2023-04-09T13:51:57.992Z,11.25
2023-04-09T13:54:24.698Z,11.50
2023-04-09T13:56:53.898Z,11.27
2023-04-09T13:59:20.596Z,11.57
2023-04-09T14:01:47.422Z,12.23
2023-04-09T14:04:14.322Z,11.57
2023-04-09T14:06:42.442Z,12.10
2023-04-09T14:09:10.377Z,12.23
2023-04-09T14:11:37.184Z,11.07
2023-04-09T14:14:06.167Z,10.85
2023-04-09T14:16:33.066Z,11.18
2023-04-09T14:19:00.118Z,11.45
2023-04-09T14:21:26.951Z,12.30
2023-04-09T14:23:53.884Z,12.63
2023-04-09T14:26:22.225Z,12.35
2023-04-09T14:28:51.706Z,11.15
2023-04-09T14:31:21.724Z,11.23
2023-04-09T14:33:48.818Z,11.40
2023-04-09T14:36:17.611Z,11.40
2023-04-09T14:38:44.412Z,10.25
2023-04-09T14:41:11.188Z,10.70
2023-04-09T14:43:38.207Z,11.60
2023-04-09T14:46:08.310Z,10.70
2023-04-09T14:48:35.251Z,10.77
2023-04-09T14:51:01.948Z,10.05
2023-04-09T14:53:28.627Z,10.95
2023-04-09T14:55:55.399Z,11.45
2023-04-09T14:58:22.136Z,10.38
2023-04-09T15:00:48.859Z,11.80
2023-04-09T15:03:15.776Z,10.32
2023-04-09T15:05:42.726Z,11.73
2023-04-09T15:08:09.432Z,11.40
2023-04-09T15:10:37.069Z,11.85
2023-04-09T15:13:03.897Z,10.40
2023-04-09T15:15:30.636Z,9.60
2023-04-09T15:17:57.415Z,10.45
2023-04-09T15:20:24.194Z,11.18
2023-04-09T15:22:51.137Z,11.00
2023-04-09T15:25:17.949Z,10.27
2023-04-09T15:27:46.430Z,10.75
2023-04-09T15:30:13.194Z,9.43
2023-04-09T15:32:40.103Z,10.00
2023-04-09T15:35:07.114Z,9.57
2023-04-09T15:37:35.040Z,9.57
2023-04-09T15:40:02.015Z,9.55
2023-04-09T15:42:28.767Z,10.35
2023-04-09T15:44:55.567Z,10.32
2023-04-09T15:47:22.569Z,9.88
2023-04-09T15:49:49.694Z,10.02
2023-04-09T15:52:16.402Z,9.95
2023-04-09T15:54:43.125Z,10.50
2023-04-09T15:57:09.829Z,9.68
2023-04-09T15:59:36.543Z,9.52
2023-04-09T16:02:04.494Z,10.20
2023-04-09T16:04:31.669Z,10.82
2023-04-09T16:06:58.537Z,9.55
2023-04-09T16:09:25.445Z,10.27
2023-04-09T16:11:52.362Z,9.52
2023-04-09T16:14:19.187Z,9.93
2023-04-09T16:16:49.924Z,9.63
2023-04-09T16:19:17.700Z,9.63
2023-04-09T16:21:45.542Z,10.02
2023-04-09T16:24:13.311Z,9.98
2023-04-09T16:26:44.666Z,9.40
2023-04-09T16:29:12.196Z,9.68
2023-04-09T16:31:42.298Z,10.35
2023-04-09T16:34:09.247Z,9.30
2023-04-09T16:36:41.062Z,9.75
2023-04-09T16:39:07.741Z,8.43
2023-04-09T16:41:36.511Z,8.95
2023-04-09T16:44:03.896Z,9.90
2023-04-09T16:46:31.096Z,9.80
2023-04-09T16:49:00.377Z,9.43
2023-04-09T16:51:27.846Z,9.25
2023-04-09T16:53:54.625Z,8.82
2023-04-09T16:56:21.478Z,8.82
2023-04-09T16:58:48.417Z,9.20
2023-04-09T17:01:15.409Z,9.00
2023-04-09T17:03:42.263Z,8.98
2023-04-09T17:06:11.827Z,9.45
2023-04-09T17:08:38.883Z,8.65
2023-04-09T17:11:05.737Z,8.60
2023-04-09T17:13:35.134Z,8.73
2023-04-09T17:16:02.924Z,8.38
2023-04-09T17:18:29.898Z,9.18
2023-04-09T17:20:57.023Z,7.88
2023-04-09T17:23:23.689Z,8.95
2023-04-09T17:25:50.432Z,7.47
2023-04-09T17:28:18.931Z,8.82
2023-04-09T17:30:46.078Z,7.80
2023-04-09T17:33:13.344Z,8.52
2023-04-09T17:35:41.682Z,7.75
2023-04-09T17:38:08.497Z,7.28
2023-04-09T17:40:35.266Z,8.57
2023-04-09T17:43:01.979Z,7.60
2023-04-09T17:45:28.701Z,8.15
2023-04-09T17:47:55.509Z,8.25
2023-04-09T17:50:22.334Z,9.07
2023-04-09T17:52:49.068Z,7.80
2023-04-09T17:55:17.298Z,9.05
2023-04-09T17:57:44.085Z,8.95
2023-04-09T18:00:11.305Z,8.25
2023-04-09T18:02:46.050Z,8.30
2023-04-09T18:05:13.168Z,7.97
2023-04-09T18:07:39.955Z,8.65
2023-04-09T18:10:09.844Z,8.23
2023-04-09T18:12:36.697Z,8.50
2023-04-09T18:15:04.266Z,8.93
2023-04-09T18:17:31.257Z,8.30
2023-04-09T18:20:00.187Z,8.95
2023-04-09T18:22:27.311Z,8.30
2023-04-09T18:24:54.217Z,8.48
2023-04-09T18:27:21.619Z,8.88
2023-04-09T18:29:51.077Z,8.60
2023-04-09T18:32:19.426Z,8.30
2023-04-09T18:34:47.544Z,8.85
2023-04-09T18:37:15.069Z,10.50
2023-04-09T18:39:41.838Z,10.45
2023-04-09T18:42:10.886Z,11.10
2023-04-09T18:44:37.749Z,11.80
2023-04-09T18:47:05.966Z,12.55
2023-04-09T18:49:33.355Z,14.55
2023-04-09T18:52:00.452Z,13.40
2023-04-09T18:54:27.614Z,13.00
2023-04-09T18:56:54.432Z,13.43
2023-04-09T18:59:21.687Z,13.18
2023-04-09T19:01:48.680Z,13.15
2023-04-09T19:04:15.670Z,11.27
2023-04-09T19:06:44.545Z,11.77
2023-04-09T19:09:11.266Z,12.13
2023-04-09T19:11:38.054Z,12.15
2023-04-09T19:14:04.789Z,12.98
2023-04-09T19:16:31.615Z,13.07
2023-04-09T19:18:58.384Z,11.80
2023-04-09T19:21:25.080Z,12.65
2023-04-09T19:23:51.776Z,12.75
2023-04-09T19:26:18.497Z,12.77
2023-04-09T19:28:45.480Z,12.10
2023-04-09T19:31:14.385Z,13.13
2023-04-09T19:33:41.267Z,13.02
2023-04-09T19:36:08.208Z,12.30
2023-04-09T19:38:35.357Z,13.52
2023-04-09T19:41:02.180Z,12.60
2023-04-09T19:43:28.958Z,12.55
2023-04-09T19:45:56.983Z,13.43
2023-04-09T19:48:24.450Z,13.75
2023-04-09T19:50:52.423Z,13.00
2023-04-09T19:53:19.094Z,14.25
2023-04-09T19:55:45.980Z,14.45
2023-04-09T19:58:12.644Z,14.80
2023-04-09T20:00:39.511Z,14.70
2023-04-09T20:03:07.047Z,15.10
2023-04-09T20:05:33.929Z,15.60
2023-04-09T20:08:00.697Z,16.02
2023-04-09T20:10:27.523Z,15.95
2023-04-09T20:12:54.211Z,16.60
2023-04-09T20:15:21.017Z,16.20
2023-04-09T20:17:48.744Z,15.02
2023-04-09T20:20:21.049Z,15.90
2023-04-09T20:22:56.288Z,16.55
2023-04-09T20:25:24.509Z,16.30
2023-04-09T20:27:54.578Z,16.95
2023-04-09T20:30:21.581Z,18.05
2023-04-09T20:32:50.824Z,18.65
2023-04-09T20:35:17.586Z,18.60
2023-04-09T20:37:52.263Z,17.35
2023-04-09T20:40:19.221Z,19.88
2023-04-09T20:42:53.346Z,19.52
2023-04-09T20:45:20.657Z,19.02
2023-04-09T20:47:47.476Z,20.50
2023-04-09T20:50:14.469Z,18.83
2023-04-09T20:52:41.701Z,19.88
2023-04-09T20:55:08.729Z,20.27
2023-04-09T20:57:35.390Z,18.70
2023-04-09T21:00:03.134Z,20.52
2023-04-09T21:02:30.404Z,19.20
2023-04-09T21:05:01.463Z,21.05
2023-04-09T21:07:30.180Z,20.50
2023-04-09T21:09:57.291Z,20.75
2023-04-09T21:12:24.754Z,20.08
2023-04-09T21:14:51.633Z,21.73
2023-04-09T21:17:18.890Z,19.70
2023-04-09T21:19:52.421Z,22.42
2023-04-09T21:22:21.020Z,22.90
2023-04-09T21:24:54.806Z,22.90
2023-04-09T21:27:22.080Z,23.63
2023-04-09T21:29:50.596Z,24.42
2023-04-09T21:32:17.542Z,23.83
2023-04-09T21:34:44.439Z,23.67
2023-04-09T21:37:11.688Z,23.65
2023-04-09T21:39:38.513Z,24.02
2023-04-09T21:42:07.127Z,23.23
2023-04-09T21:44:33.945Z,22.23
2023-04-09T21:47:01.876Z,24.08
2023-04-09T21:49:28.896Z,22.48
2023-04-09T21:51:56.699Z,23.02
2023-04-09T21:54:23.359Z,22.90
2023-04-09T21:56:50.270Z,23.45
2023-04-09T21:59:17.281Z,23.70
2023-04-09T22:01:44.799Z,23.63
2023-04-09T22:04:11.659Z,25.48
2023-04-09T22:06:39.055Z,23.98
2023-04-09T22:09:05.947Z,24.67
2023-04-09T22:11:34.245Z,25.20
2023-04-09T22:14:01.354Z,25.73
2023-04-09T22:16:28.332Z,26.70
2023-04-09T22:18:55.614Z,26.20
2023-04-09T22:21:22.616Z,26.02
2023-04-09T22:23:49.796Z,27.52
2023-04-09T22:26:16.815Z,27.05
2023-04-09T22:28:43.656Z,27.38
2023-04-09T22:31:10.452Z,29.52
2023-04-09T22:33:37.459Z,26.48
2023-04-09T22:36:05.059Z,29.08
2023-04-09T22:38:31.885Z,28.02
2023-04-09T22:40:58.573Z,28.25
2023-04-09T22:43:25.624Z,28.85
2023-04-09T22:45:56.012Z,28.55
2023-04-09T22:48:23.376Z,28.52
2023-04-09T22:50:51.296Z,30.48
2023-04-09T22:53:22.270Z,30.65
2023-04-09T22:55:54.327Z,30.90
2023-04-09T22:58:21.275Z,32.30
2023-04-09T23:00:48.217Z,31.95
2023-04-09T23:03:15.261Z,32.78
2023-04-09T23:05:42.394Z,36.90
2023-04-09T23:08:12.190Z,35.83
2023-04-09T23:10:39.141Z,40.10
2023-04-09T23:13:07.248Z,41.45
2023-04-09T23:15:34.160Z,40.15
2023-04-09T23:18:01.171Z,42.10
2023-04-09T23:20:29.334Z,42.25
2023-04-09T23:22:56.036Z,41.97
2023-04-09T23:25:23.281Z,43.42
2023-04-09T23:27:50.264Z,43.33
2023-04-09T23:30:18.134Z,41.90
2023-04-09T23:32:45.643Z,43.88
2023-04-09T23:35:12.681Z,44.20
2023-04-09T23:37:40.887Z,46.28
2023-04-09T23:40:08.787Z,47.28
2023-04-09T23:42:35.742Z,47.08
2023-04-09T23:45:04.306Z,45.88
2023-04-09T23:47:35.800Z,43.28
2023-04-09T23:50:07.781Z,43.88
2023-04-09T23:52:36.737Z,44.92
2023-04-09T23:55:04.420Z,45.58
2023-04-09T23:57:31.693Z,44.55
2023-04-09T23:59:59.058Z,46.88
